Terminal Aerodrome Forecast
Issued by NWS

Home | Current Version | Previous Version | Text Only | Print | Product List | Glossary On
Versions: 1 2 3 4 5 6 7 8 9 10 11 12 13 14 15 16 17 18 19 20 21 22 23 24 25 26 27 28 29 30 31 32
000
FTUS45 KCYS 061120
TAFRWL
TAF
KRWL 061120Z 0612/0712 34006KT P6SM SCT050
     FM061500 21008KT 5SM BR VCSH SCT010 BKN030
     FM061700 27009KT 3SM -RA BR SCT010 OVC015
     FM061900 32010G20KT P6SM VCTS SCT015 BKN025CB
     FM070100 06007KT 5SM BR SCT007 OVC015=

USA.gov is the U.S. government's official web portal to all federal, state and local government web resources and services.